Time;durP1;ratioP1;P1;durP2;ratioP2;P2;SDS_P1;SDS_P2;PMS_P1;PMS_P2;Temp;Humidity;BMP_temperature;BMP_pressure;BME280_temperature;BME280_humidity;BME280_pressure;Samples;Min_cycle;Max_cycle;Signal;HPM_P1;HPM_P2
2023/04/27 06:33:09;;;;;;;8.95;5.20;;;10.70;99.90;;;;;;6089113;29;20083;-81
2023/04/27 06:36:11;;;;;;;10.63;5.53;;;10.80;99.90;;;;;;6100874;29;20044;-81
2023/04/27 06:39:13;;;;;;;10.68;5.55;;;10.80;99.90;;;;;;6083258;29;20052;-81
2023/04/27 06:42:14;;;;;;;10.57;5.60;;;10.70;99.90;;;;;;6100730;29;20048;-80
2023/04/27 06:45:16;;;;;;;9.68;5.18;;;10.80;99.90;;;;;;6106444;29;20056;-80
2023/04/27 06:48:20;;;;;;;8.57;5.78;;;10.90;99.90;;;;;;6106667;29;20409;-80
2023/04/27 06:51:22;;;;;;;9.27;5.05;;;10.90;99.90;;;;;;6106501;29;20383;-80
2023/04/27 06:54:24;;;;;;;8.23;5.05;;;11.00;99.90;;;;;;6089286;29;20060;-80
2023/04/27 06:57:26;;;;;;;10.70;5.43;;;11.10;99.60;;;;;;6083198;29;20065;-80
2023/04/27 07:00:28;;;;;;;9.25;5.10;;;11.30;99.40;;;;;;6083279;29;20052;-80
2023/04/27 07:03:35;;;;;;;8.90;5.25;;;11.30;98.60;;;;;;6083070;29;20049;-80
2023/04/27 07:06:37;;;;;;;8.65;5.50;;;11.30;98.50;;;;;;6082879;29;20052;-80
2023/04/27 07:09:38;;;;;;;10.82;5.35;;;11.40;98.50;;;;;;6083003;29;20049;-80
2023/04/27 07:12:42;;;;;;;10.43;5.18;;;11.50;98.70;;;;;;6082718;29;20052;-80
2023/04/27 07:15:44;;;;;;;9.25;4.97;;;11.60;98.20;;;;;;6082779;29;20049;-81
2023/04/27 07:18:47;;;;;;;9.27;4.57;;;11.70;98.00;;;;;;6082649;29;20048;-81
2023/04/27 07:21:49;;;;;;;8.93;5.35;;;11.60;98.10;;;;;;6082865;29;20411;-80
2023/04/27 07:24:51;;;;;;;7.72;4.88;;;11.80;97.60;;;;;;6082418;29;20103;-80
2023/04/27 07:27:53;;;;;;;11.32;5.30;;;11.90;98.20;;;;;;6082817;29;20048;-80
2023/04/27 07:30:56;;;;;;;10.68;5.22;;;11.90;97.60;;;;;;6099359;29;20513;-80
2023/04/27 07:34:00;;;;;;;9.45;4.80;;;12.00;97.80;;;;;;6105772;29;20131;-80
2023/04/27 07:37:02;;;;;;;9.02;4.75;;;12.00;96.50;;;;;;6105589;29;20059;-81
2023/04/27 07:40:09;;;;;;;10.02;5.00;;;12.00;96.30;;;;;;6105629;29;20402;-80
2023/04/27 07:43:11;;;;;;;9.15;4.97;;;12.00;96.50;;;;;;6105633;29;20183;-80
2023/04/27 07:46:13;;;;;;;11.65;4.93;;;12.10;96.30;;;;;;6105841;29;20056;-80
2023/04/27 07:49:17;;;;;;;9.15;4.90;;;12.00;95.80;;;;;;6105504;29;20059;-80
2023/04/27 07:52:19;;;;;;;11.10;5.07;;;12.10;95.90;;;;;;6105652;29;20060;-80
2023/04/27 07:55:22;;;;;;;9.07;5.05;;;12.20;95.70;;;;;;6105355;29;20048;-80
2023/04/27 07:58:24;;;;;;;10.45;4.90;;;12.20;94.90;;;;;;6099818;29;20513;-80
2023/04/27 08:01:26;;;;;;;10.65;4.95;;;12.40;94.30;;;;;;6081807;29;20053;-80
2023/04/27 08:04:29;;;;;;;13.15;4.68;;;12.40;93.60;;;;;;6081536;29;20415;-81
2023/04/27 08:07:31;;;;;;;10.50;4.32;;;12.50;93.60;;;;;;6081709;29;20104;-81
2023/04/27 08:10:33;;;;;;;9.15;4.30;;;12.60;92.40;;;;;;6081584;29;20053;-80
2023/04/27 08:13:35;;;;;;;8.55;4.55;;;12.60;92.30;;;;;;6081318;29;20045;-80
2023/04/27 08:16:37;;;;;;;8.73;4.30;;;12.60;92.00;;;;;;6081301;29;20055;-81
2023/04/27 08:19:41;;;;;;;7.80;3.90;;;12.50;92.00;;;;;;6096581;29;20413;-80
2023/04/27 08:22:43;;;;;;;;;;;12.60;91.70;;;;;;6128666;29;20087;-80
2023/04/27 08:25:45;;;;;;;7.85;3.63;;;12.70;91.40;;;;;;6128426;29;19929;-80
2023/04/27 08:28:48;;;;;;;9.55;3.70;;;12.80;91.20;;;;;;6128177;29;20067;-81
2023/04/27 08:31:50;;;;;;;8.93;3.58;;;12.90;91.20;;;;;;6128161;29;20047;-80
2023/04/27 08:34:53;;;;;;;8.73;3.90;;;13.00;91.30;;;;;;6128163;29;20051;-80
2023/04/27 08:37:55;;;;;;;8.18;3.92;;;13.00;90.80;;;;;;6127923;29;20058;-78
2023/04/27 08:40:57;;;;;;;6.75;3.30;;;13.10;91.10;;;;;;6127961;29;20048;-78
2023/04/27 08:43:59;;;;;;;7.78;3.45;;;13.10;90.20;;;;;;6127729;29;20413;-78
2023/04/27 08:47:04;;;;;;;10.70;4.03;;;13.20;90.40;;;;;;6127359;29;20048;-78
2023/04/27 08:50:09;;;;;;;7.75;3.53;;;13.30;90.00;;;;;;6127713;29;20409;-78
2023/04/27 08:53:17;;;;;;;7.40;3.60;;;13.40;90.30;;;;;;6127694;29;20048;-78
2023/04/27 08:56:22;;;;;;;7.85;3.45;;;13.30;88.60;;;;;;6127550;29;20086;-78
2023/04/27 08:59:24;;;;;;;7.68;3.38;;;13.40;87.00;;;;;;6127656;29;20055;-78
2023/04/27 09:02:28;;;;;;;6.22;3.17;;;13.50;86.20;;;;;;6127531;29;20048;-78
2023/04/27 09:05:31;;;;;;;7.78;3.20;;;13.60;85.80;;;;;;6127402;29;20062;-79
2023/04/27 09:08:44;;;;;;;11.32;5.22;;;13.90;84.50;;;;;;6127292;29;20493;-78
2023/04/27 09:11:46;;;;;;;;;;;13.80;83.60;;;;;;6127698;29;20055;-79
2023/04/27 09:14:58;;;;;;;5.93;2.92;;;13.80;82.80;;;;;;6127364;29;19926;-78
2023/04/27 09:18:00;;;;;;;5.88;3.10;;;14.00;81.80;;;;;;6127106;29;20149;-78
2023/04/27 09:21:03;;;;;;;5.80;3.08;;;14.00;80.70;;;;;;6127284;29;20051;-78
2023/04/27 09:24:12;;;;;;;;;;;14.10;81.60;;;;;;6127761;29;20555;-78
2023/04/27 09:27:20;;;;;;;6.88;3.00;;;14.20;81.80;;;;;;6127142;29;19930;-79
2023/04/27 09:30:22;;;;;;;6.85;3.10;;;14.30;79.90;;;;;;6113949;29;20143;-78
2023/04/27 09:33:26;;;;;;;7.57;3.28;;;14.40;80.80;;;;;;6103605;29;20059;-78
2023/04/27 09:36:31;;;;;;;5.88;3.05;;;14.50;81.50;;;;;;6102313;29;20052;-78
2023/04/27 09:39:33;;;;;;;6.93;3.30;;;14.50;80.50;;;;;;6103508;29;20439;-79
2023/04/27 09:42:35;;;;;;;6.15;2.95;;;14.60;80.60;;;;;;6103528;29;20059;-78
2023/04/27 09:45:38;;;;;;;8.20;3.20;;;14.70;79.70;;;;;;6103809;29;20056;-77
2023/04/27 09:48:41;;;;;;;6.00;3.03;;;14.60;78.70;;;;;;6103597;29;20052;-78
2023/04/27 09:51:44;;;;;;;7.20;3.17;;;14.60;78.90;;;;;;6103339;29;20044;-79
2023/04/27 09:54:47;;;;;;;8.35;3.00;;;14.60;78.30;;;;;;6103268;29;20059;-80
2023/04/27 09:58:01;;;;;;;5.73;2.80;;;14.70;78.60;;;;;;6105019;29;20056;-80
2023/04/27 10:01:13;;;;;;;5.18;2.30;;;14.90;76.40;;;;;;6107623;29;20440;-81
2023/04/27 10:04:35;;;;;;;6.30;2.72;;;14.80;75.60;;;;;;6109523;29;20055;-84
2023/04/27 10:07:39;;;;;;;4.88;2.53;;;14.60;75.20;;;;;;6107768;29;20048;-82
2023/04/27 10:10:48;;;;;;;6.30;3.05;;;14.50;75.50;;;;;;6108035;29;20545;-83
2023/04/27 10:13:54;;;;;;;8.02;2.90;;;14.70;75.40;;;;;;6108930;29;20549;-82
2023/04/27 10:16:58;;;;;;;5.80;2.80;;;14.70;75.30;;;;;;6107757;29;20052;-82
2023/04/27 10:20:02;;;;;;;6.43;2.38;;;14.70;74.50;;;;;;6107405;29;20103;-82
2023/04/27 10:23:06;;;;;;;6.00;2.72;;;14.90;73.80;;;;;;6109722;29;20096;-82
2023/04/27 10:26:08;;;;;;;6.75;2.42;;;14.80;73.40;;;;;;6107440;29;20052;-79
2023/04/27 10:29:11;;;;;;;7.07;2.88;;;14.90;74.20;;;;;;6103628;29;20052;-80
2023/04/27 10:32:19;;;;;;;5.85;2.55;;;15.20;73.10;;;;;;6083576;29;20087;-79
2023/04/27 10:35:22;;;;;;;7.35;2.63;;;15.20;74.00;;;;;;6083894;29;20044;-78
2023/04/27 10:38:31;;;;;;;6.10;2.78;;;15.20;75.10;;;;;;6083440;29;20161;-79
2023/04/27 10:41:36;;;;;;;6.35;2.70;;;15.40;73.90;;;;;;6083549;29;20044;-79
2023/04/27 10:44:39;;;;;;;5.10;2.30;;;15.40;74.00;;;;;;6083342;29;20048;-79
2023/04/27 10:47:43;;;;;;;5.53;2.80;;;15.50;74.40;;;;;;6083507;29;20052;-79
2023/04/27 10:50:45;;;;;;;7.65;2.60;;;15.30;75.70;;;;;;6083189;29;20495;-79
2023/04/27 10:53:52;;;;;;;5.57;2.42;;;15.60;73.00;;;;;;6083397;29;20055;-79
2023/04/27 10:56:54;;;;;;;6.38;2.50;;;15.70;76.00;;;;;;6083118;29;20051;-79
2023/04/27 10:59:56;;;;;;;5.72;2.50;;;15.70;75.20;;;;;;6083115;29;20396;-79
2023/04/27 11:03:11;;;;;;;6.70;2.90;;;16.00;74.70;;;;;;6083050;29;20418;-79
2023/04/27 11:06:13;;;;;;;6.10;2.53;;;16.10;73.00;;;;;;6083137;29;20056;-78
2023/04/27 11:09:26;;;;;;;6.25;2.75;;;16.30;73.70;;;;;;6082666;29;20048;-79
2023/04/27 11:12:27;;;;;;;7.53;3.05;;;16.40;72.00;;;;;;6083199;29;20057;-79
2023/04/27 11:15:29;;;;;;;5.00;2.60;;;16.40;71.10;;;;;;6082863;29;20052;-79
2023/04/27 11:18:33;;;;;;;5.82;2.58;;;16.60;72.70;;;;;;6081749;29;20053;-80
2023/04/27 11:21:35;;;;;;;6.97;2.80;;;16.60;71.80;;;;;;6079803;29;20063;-81
2023/04/27 11:24:47;;;;;;;10.57;2.78;;;16.60;73.40;;;;;;6079489;29;20124;-80
2023/04/27 11:27:49;;;;;;;11.60;4.13;;;16.80;70.70;;;;;;6079461;29;20052;-79
2023/04/27 11:30:57;;;;;;;5.95;2.70;;;17.00;72.00;;;;;;6096023;29;20056;-80
2023/04/27 11:33:59;;;;;;;5.18;2.50;;;17.10;71.80;;;;;;6104533;29;20056;-80
2023/04/27 11:37:03;;;;;;;5.85;2.80;;;17.30;70.50;;;;;;6100502;29;20486;-80
2023/04/27 11:40:10;;;;;;;7.32;2.70;;;17.20;72.10;;;;;;6104643;29;20052;-81
2023/04/27 11:43:13;;;;;;;9.05;3.05;;;17.30;71.60;;;;;;6102338;29;20048;-80
2023/04/27 11:46:15;;;;;;;7.00;3.05;;;17.40;71.30;;;;;;6102565;29;20056;-82
2023/04/27 11:49:17;;;;;;;8.73;2.90;;;17.40;68.20;;;;;;6102612;29;20056;-81
2023/04/27 11:52:19;;;;;;;6.75;2.78;;;17.50;68.10;;;;;;6103020;29;20052;-81
2023/04/27 11:55:23;;;;;;;5.30;2.80;;;17.70;68.10;;;;;;6101882;29;20486;-81
2023/04/27 11:58:25;;;;;;;6.40;2.40;;;17.80;68.10;;;;;;6102134;29;20063;-80
2023/04/27 12:01:28;;;;;;;6.57;2.60;;;17.90;68.20;;;;;;6101853;29;20059;-81
2023/04/27 12:04:30;;;;;;;7.07;2.83;;;18.20;69.50;;;;;;6102044;29;20089;-81
2023/04/27 12:07:33;;;;;;;7.63;2.85;;;17.80;67.20;;;;;;6101136;29;20557;-81
2023/04/27 12:10:36;;;;;;;7.35;2.92;;;17.90;68.00;;;;;;6102578;29;20096;-80
2023/04/27 12:13:38;;;;;;;9.57;3.75;;;18.20;67.90;;;;;;6102411;29;20052;-81
2023/04/27 12:16:40;;;;;;;6.40;2.90;;;18.30;67.70;;;;;;6101972;29;20510;-78
2023/04/27 12:19:42;;;;;;;5.10;2.65;;;18.50;66.90;;;;;;6100864;29;20060;-78
2023/04/27 12:22:43;;;;;;;6.00;2.60;;;18.80;64.90;;;;;;6101760;29;20147;-78
2023/04/27 12:25:47;;;;;;;5.38;2.55;;;18.90;65.00;;;;;;6101265;29;20422;-78
2023/04/27 12:28:49;;;;;;;5.95;3.13;;;18.90;64.20;;;;;;6100612;29;20135;-79
2023/04/27 12:31:51;;;;;;;5.45;2.58;;;18.70;64.50;;;;;;6077491;29;20410;-79
2023/04/27 12:34:52;;;;;;;6.03;2.80;;;18.70;65.30;;;;;;6077702;29;20403;-78
2023/04/27 12:37:54;;;;;;;6.15;2.90;;;18.90;64.20;;;;;;6075885;29;20082;-78
2023/04/27 12:41:01;;;;;;;7.10;2.90;;;19.10;66.10;;;;;;6088033;29;20044;-79
2023/04/27 12:44:05;;;;;;;7.00;2.72;;;19.20;63.60;;;;;;6099564;29;20060;-78
2023/04/27 12:47:08;;;;;;;5.90;2.30;;;19.20;64.10;;;;;;6077687;29;20053;-79
2023/04/27 12:50:10;;;;;;;7.45;2.50;;;19.30;64.80;;;;;;6098403;29;20192;-78
2023/04/27 12:53:11;;;;;;;4.90;2.20;;;19.00;64.60;;;;;;6100803;29;20117;-79
2023/04/27 12:56:15;;;;;;;6.07;2.20;;;19.20;62.80;;;;;;6100568;29;20055;-79
2023/04/27 12:59:17;;;;;;;4.47;2.00;;;19.40;61.90;;;;;;6100509;29;20490;-79
2023/04/27 13:02:19;;;;;;;6.43;2.13;;;19.40;63.30;;;;;;6100775;29;20052;-79
2023/04/27 13:05:21;;;;;;;6.55;2.50;;;19.70;61.80;;;;;;6100511;29;20060;-79
2023/04/27 13:08:23;;;;;;;4.65;2.38;;;19.90;61.70;;;;;;6100566;29;20059;-79
2023/04/27 13:11:28;;;;;;;5.40;2.40;;;19.60;63.40;;;;;;6100775;29;20052;-78
2023/04/27 13:14:32;;;;;;;5.22;2.33;;;19.30;64.90;;;;;;6099977;29;20056;-78
2023/04/27 13:17:34;;;;;;;6.03;2.38;;;19.60;63.20;;;;;;6093286;29;20056;-77
2023/04/27 13:20:36;;;;;;;4.15;2.00;;;19.90;61.00;;;;;;6098367;29;20056;-79
2023/04/27 13:23:39;;;;;;;5.07;1.70;;;20.20;59.80;;;;;;6099486;29;20048;-77
2023/04/27 13:26:42;;;;;;;6.30;2.33;;;20.30;61.00;;;;;;6100799;29;20075;-81
2023/04/27 13:29:44;;;;;;;;;;;20.40;58.50;;;;;;6092784;29;20052;-81
2023/04/27 13:32:46;;;;;;;5.55;2.15;;;20.20;57.80;;;;;;6080329;29;19927;-82
2023/04/27 13:35:48;;;;;;;3.88;1.80;;;20.40;58.90;;;;;;6082061;29;20059;-83
2023/04/27 13:38:50;;;;;;;5.53;2.10;;;20.40;58.00;;;;;;6080015;29;20060;-80
2023/04/27 13:41:54;;;;;;;5.93;1.85;;;20.40;59.80;;;;;;6079489;29;20052;-77
2023/04/27 13:44:56;;;;;;;4.78;1.98;;;20.50;59.90;;;;;;6079842;29;20064;-78
2023/04/27 13:47:58;;;;;;;4.15;1.90;;;20.90;59.50;;;;;;6080671;29;20052;-86
2023/04/27 13:51:00;;;;;;;5.47;1.58;;;20.40;59.80;;;;;;6082036;29;20052;-75
2023/04/27 13:54:02;;;;;;;6.75;1.70;;;20.90;60.10;;;;;;6081078;29;20425;-76
2023/04/27 13:57:05;;;;;;;3.72;1.90;;;21.10;61.30;;;;;;6081237;29;20511;-76
2023/04/27 14:00:10;;;;;;;4.03;1.70;;;21.30;58.80;;;;;;6081466;29;20470;-78
2023/04/27 14:03:12;;;;;;;3.53;1.65;;;21.20;59.40;;;;;;6081369;29;20052;-75
2023/04/27 14:06:14;;;;;;;4.32;1.80;;;21.60;56.70;;;;;;6080802;29;20060;-74
2023/04/27 14:09:16;;;;;;;5.90;2.00;;;21.60;55.70;;;;;;6080992;29;20048;-73
2023/04/27 14:12:19;;;;;;;3.78;1.88;;;21.10;55.20;;;;;;6081055;29;20060;-73
2023/04/27 14:15:21;;;;;;;;;;;20.90;56.10;;;;;;6081303;29;20495;-75
2023/04/27 14:18:23;;;;;;;3.53;1.63;;;21.10;56.50;;;;;;6080657;29;19934;-76
2023/04/27 14:21:27;;;;;;;3.85;1.80;;;21.30;56.70;;;;;;6080693;29;20509;-74
2023/04/27 14:24:29;;;;;;;4.25;1.50;;;21.50;56.20;;;;;;6080780;29;20057;-74
2023/04/27 14:27:32;;;;;;;3.80;1.75;;;21.60;56.30;;;;;;6087494;29;20040;-72
2023/04/27 14:30:34;;;;;;;;;;;21.90;54.80;;;;;;6106542;29;20060;-74
2023/04/27 14:33:36;;;;;;;4.80;1.45;;;22.20;55.30;;;;;;6103918;29;19971;-74
2023/04/27 14:36:38;;;;;;;3.35;1.27;;;22.90;55.70;;;;;;6103966;29;20375;-73
2023/04/27 14:39:40;;;;;;;5.32;1.65;;;23.50;56.30;;;;;;6103471;29;20056;-74
2023/04/27 14:42:43;;;;;;;5.15;1.65;;;23.40;50.60;;;;;;6101064;29;20053;-75
2023/04/27 14:45:45;;;;;;;3.55;1.35;;;23.50;53.60;;;;;;6103708;29;20056;-75
2023/04/27 14:48:48;;;;;;;5.03;1.60;;;23.90;53.80;;;;;;6103761;29;20395;-75
2023/04/27 14:51:50;;;;;;;4.93;1.52;;;24.40;52.00;;;;;;6103663;29;20059;-76
2023/04/27 14:54:51;;;;;;;3.33;1.38;;;24.30;51.30;;;;;;6100814;29;20273;-76
2023/04/27 14:57:55;;;;;;;5.18;1.60;;;24.20;52.70;;;;;;6102310;29;20406;-76
2023/04/27 15:00:57;;;;;;;3.55;1.60;;;24.40;51.40;;;;;;6103388;29;20407;-77
2023/04/27 15:03:59;;;;;;;3.42;1.65;;;24.00;50.30;;;;;;6083153;29;20052;-84
2023/04/27 15:07:01;;;;;;;4.63;1.30;;;23.60;52.30;;;;;;6103021;29;20088;-82
2023/04/27 15:10:04;;;;;;;2.75;1.30;;;24.00;53.70;;;;;;6103522;29;20147;-84
2023/04/27 15:13:07;;;;;;;3.15;1.10;;;25.20;49.90;;;;;;6103355;29;20110;-84
2023/04/27 15:16:09;;;;;;;4.18;1.30;;;27.70;49.40;;;;;;6101105;29;20048;-79
2023/04/27 15:19:11;;;;;;;5.60;1.33;;;29.90;44.90;;;;;;6103108;29;20056;-77
2023/04/27 15:22:13;;;;;;;3.83;1.30;;;31.50;41.70;;;;;;6096650;29;20075;-80
2023/04/27 15:25:15;;;;;;;4.47;1.30;;;33.10;39.70;;;;;;6099208;29;20055;-79
2023/04/27 15:28:19;;;;;;;3.15;1.30;;;32.90;39.40;;;;;;6084739;29;20056;-80
2023/04/27 15:31:21;;;;;;;3.33;1.30;;;35.20;37.50;;;;;;6096751;29;20159;-78
2023/04/27 15:34:23;;;;;;;2.45;1.15;;;33.50;35.80;;;;;;6100340;29;20199;-81
2023/04/27 15:37:26;;;;;;;3.42;1.60;;;31.80;37.70;;;;;;6100315;29;20165;-78
2023/04/27 15:40:28;;;;;;;3.33;1.25;;;31.70;37.90;;;;;;6099192;29;20482;-79
2023/04/27 15:43:32;;;;;;;3.17;1.20;;;32.30;38.90;;;;;;6100478;29;20071;-79
2023/04/27 15:46:34;;;;;;;3.85;1.38;;;30.50;38.70;;;;;;6095139;29;20048;-78
2023/04/27 15:49:36;;;;;;;3.67;1.60;;;28.70;40.90;;;;;;6099417;29;20052;-81
2023/04/27 15:52:38;;;;;;;6.30;1.83;;;27.50;42.60;;;;;;6102932;29;20655;-82
2023/04/27 15:55:40;;;;;;;3.65;1.60;;;25.60;45.50;;;;;;6099817;29;20052;-84
2023/04/27 15:58:43;;;;;;;4.47;1.60;;;24.90;45.60;;;;;;6104595;29;20064;-82
2023/04/27 16:01:46;;;;;;;3.88;1.75;;;24.50;46.60;;;;;;6102651;29;20059;-80
2023/04/27 16:04:49;;;;;;;3.93;1.60;;;23.70;46.20;;;;;;6102127;29;20063;-82
2023/04/27 16:07:51;;;;;;;;;;;24.30;47.40;;;;;;6102591;29;20067;-79
2023/04/27 16:10:53;;;;;;;4.05;1.55;;;24.60;47.10;;;;;;6102104;29;20490;-80
2023/04/27 16:13:56;;;;;;;4.50;1.77;;;23.90;48.10;;;;;;6101419;29;20052;-84
2023/04/27 16:16:58;;;;;;;3.83;1.50;;;24.10;47.50;;;;;;6102170;29;20047;-85
2023/04/27 16:20:00;;;;;;;4.47;1.50;;;25.10;47.90;;;;;;6101482;29;20063;-82
2023/04/27 16:23:03;;;;;;;3.78;1.70;;;26.80;44.50;;;;;;6099219;29;20365;-82
2023/04/27 16:26:04;;;;;;;4.18;1.80;;;26.50;43.80;;;;;;6100390;29;20052;-82
2023/04/27 16:29:08;;;;;;;5.10;1.50;;;26.20;45.10;;;;;;6101604;29;20063;-81
2023/04/27 16:32:10;;;;;;;3.88;1.30;;;25.80;45.40;;;;;;6101151;29;20522;-81
2023/04/27 16:35:12;;;;;;;4.20;1.40;;;25.80;45.00;;;;;;6099460;29;20067;-77
2023/04/27 16:38:14;;;;;;;3.08;1.20;;;25.20;45.20;;;;;;6100838;29;20670;-78
2023/04/27 16:41:15;;;;;;;4.10;1.15;;;25.80;45.50;;;;;;6100895;29;20051;-78
2023/04/27 16:44:19;;;;;;;3.78;1.27;;;26.80;43.90;;;;;;6101156;29;20056;-77
2023/04/27 16:47:20;;;;;;;3.88;1.38;;;27.20;43.50;;;;;;6101177;29;20595;-77
2023/04/27 16:50:22;;;;;;;3.70;1.20;;;27.20;44.30;;;;;;6101308;29;20318;-77
2023/04/27 16:53:25;;;;;;;2.63;1.30;;;27.30;44.30;;;;;;6101008;29;20124;-77
2023/04/27 16:56:28;;;;;;;;;;;27.20;43.00;;;;;;6097950;29;20056;-75
2023/04/27 16:59:31;;;;;;;2.95;1.17;;;26.50;43.20;;;;;;6099819;29;19926;-78
2023/04/27 17:02:34;;;;;;;4.13;1.40;;;26.40;43.30;;;;;;6087759;29;20536;-75
2023/04/27 17:05:35;;;;;;;3.95;1.20;;;26.00;43.20;;;;;;6090921;29;20391;-74
2023/04/27 17:08:38;;;;;;;4.93;1.40;;;26.40;43.70;;;;;;6094950;29;20059;-73
2023/04/27 17:11:40;;;;;;;4.20;1.50;;;26.80;43.00;;;;;;6093331;29;20410;-74
2023/04/27 17:14:43;;;;;;;3.65;1.42;;;26.60;43.80;;;;;;6093377;29;20052;-74
2023/04/27 17:17:46;;;;;;;3.45;1.17;;;26.40;44.00;;;;;;6092425;29;20102;-75
2023/04/27 17:20:48;;;;;;;3.72;1.25;;;25.60;44.70;;;;;;6093118;29;20063;-75
2023/04/27 17:23:51;;;;;;;3.95;1.30;;;25.00;44.50;;;;;;6096102;29;20414;-75
2023/04/27 17:26:53;;;;;;;3.92;1.20;;;23.90;46.00;;;;;;6088207;29;20052;-74
2023/04/27 17:29:56;;;;;;;2.80;1.20;;;23.70;46.70;;;;;;6098005;29;20052;-74
2023/04/27 17:32:58;;;;;;;;;;;23.40;47.80;;;;;;6098954;29;20063;-74
2023/04/27 17:36:00;;;;;;;3.38;1.13;;;23.10;48.10;;;;;;6099918;29;19931;-75
2023/04/27 17:39:03;;;;;;;2.55;1.05;;;22.80;48.80;;;;;;6099223;29;20048;-74
2023/04/27 17:42:05;;;;;;;2.63;1.10;;;22.20;49.90;;;;;;6100746;29;20053;-74
2023/04/27 17:45:10;;;;;;;3.42;1.15;;;21.60;50.00;;;;;;6099631;29;20056;-74
2023/04/27 17:48:12;;;;;;;4.90;1.20;;;21.30;51.50;;;;;;6103246;29;20516;-74
2023/04/27 17:51:14;;;;;;;3.63;1.27;;;21.20;52.00;;;;;;6111842;29;20062;-75
2023/04/27 17:54:16;;;;;;;2.72;1.00;;;20.90;52.90;;;;;;6118029;29;20172;-75
2023/04/27 17:57:18;;;;;;;3.05;1.10;;;20.70;52.70;;;;;;6100304;29;20056;-75
2023/04/27 18:00:22;;;;;;;3.97;1.30;;;20.50;53.00;;;;;;6099992;29;20060;-75
2023/04/27 18:03:25;;;;;;;3.17;1.20;;;20.40;53.90;;;;;;6094395;29;20059;-75
2023/04/27 18:06:27;;;;;;;3.38;1.10;;;20.30;55.00;;;;;;6103760;29;20044;-74
2023/04/27 18:09:31;;;;;;;4.30;1.30;;;20.30;56.50;;;;;;6097805;29;20048;-75
2023/04/27 18:12:33;;;;;;;3.67;1.30;;;20.20;57.10;;;;;;6097763;29;20052;-76
2023/04/27 18:15:36;;;;;;;4.57;1.50;;;20.10;56.90;;;;;;6099940;29;20052;-76
2023/04/27 18:18:38;;;;;;;6.75;3.03;;;19.90;58.60;;;;;;6100299;29;20059;-76
2023/04/27 18:21:40;;;;;;;3.30;1.65;;;19.70;59.10;;;;;;6092011;29;20051;-76
2023/04/27 18:24:42;;;;;;;3.65;1.55;;;19.60;60.30;;;;;;6093660;29;20056;-76
2023/04/27 18:27:44;;;;;;;3.25;1.48;;;19.40;61.50;;;;;;6103824;29;20056;-75
2023/04/27 18:30:47;;;;;;;4.97;1.80;;;19.30;61.50;;;;;;6096116;29;20446;-76
2023/04/27 18:33:49;;;;;;;4.35;1.80;;;19.20;62.50;;;;;;6102455;29;20048;-76
2023/04/27 18:36:51;;;;;;;4.47;1.92;;;19.00;63.40;;;;;;6101443;29;20055;-78
2023/04/27 18:39:52;;;;;;;5.47;2.80;;;18.80;64.00;;;;;;6100181;29;20506;-77
2023/04/27 18:42:54;;;;;;;6.68;2.53;;;18.30;67.10;;;;;;6102408;29;20079;-77
2023/04/27 18:45:57;;;;;;;5.20;2.17;;;18.10;67.90;;;;;;6102060;29;20128;-77
2023/04/27 18:49:00;;;;;;;6.32;2.63;;;18.00;66.90;;;;;;6102535;29;20051;-79
2023/04/27 18:52:06;;;;;;;6.07;2.60;;;17.90;67.60;;;;;;6084589;29;20048;-78
2023/04/27 18:55:09;;;;;;;4.40;2.30;;;17.90;68.20;;;;;;6078033;29;20115;-78
2023/04/27 18:58:11;;;;;;;4.90;2.10;;;17.90;66.70;;;;;;6077521;29;20053;-78
2023/04/27 19:01:20;;;;;;;4.45;2.20;;;17.80;67.20;;;;;;6090705;29;20059;-78
2023/04/27 19:04:24;;;;;;;4.07;1.83;;;17.70;68.60;;;;;;6100415;29;20060;-76
2023/04/27 19:07:26;;;;;;;4.95;2.38;;;17.60;68.90;;;;;;6101009;29;20063;-78
2023/04/27 19:10:28;;;;;;;4.95;2.47;;;17.20;69.30;;;;;;6099744;29;20056;-78
2023/04/27 19:13:30;;;;;;;4.07;2.10;;;16.90;71.40;;;;;;6100959;29;20151;-76
2023/04/27 19:16:34;;;;;;;6.47;2.65;;;16.80;71.90;;;;;;6092160;29;20048;-78
2023/04/27 19:19:36;;;;;;;4.45;2.20;;;16.70;72.90;;;;;;6077585;29;20055;-77
2023/04/27 19:22:38;;;;;;;7.07;2.20;;;16.70;72.30;;;;;;6099944;29;20118;-81
2023/04/27 19:25:40;;;;;;;5.32;2.45;;;16.60;72.40;;;;;;6101072;29;20380;-78
2023/04/27 19:28:42;;;;;;;5.38;2.55;;;16.70;73.60;;;;;;6100875;29;20053;-80
2023/04/27 19:31:45;;;;;;;4.13;1.90;;;16.70;73.80;;;;;;6100885;29;20115;-78
2023/04/27 19:34:48;;;;;;;4.35;2.25;;;16.50;73.10;;;;;;6100810;29;20501;-78
2023/04/27 19:37:50;;;;;;;5.15;2.00;;;16.50;73.50;;;;;;6105094;29;20135;-78
2023/04/27 19:40:52;;;;;;;4.53;2.10;;;16.50;75.40;;;;;;6106676;29;20083;-79
2023/04/27 19:43:54;;;;;;;4.82;2.22;;;16.60;74.00;;;;;;6105886;29;20056;-79
2023/04/27 19:46:57;;;;;;;5.70;2.13;;;16.50;73.30;;;;;;6104266;29;20528;-78
2023/04/27 19:49:59;;;;;;;5.00;1.80;;;16.40;72.30;;;;;;6110533;29;20055;-80
2023/04/27 19:53:01;;;;;;;3.42;1.60;;;16.30;71.60;;;;;;6106716;29;20052;-80
2023/04/27 19:56:03;;;;;;;3.55;1.70;;;16.20;71.60;;;;;;6102196;29;20048;-77
2023/04/27 19:59:05;;;;;;;13.27;4.90;;;16.30;73.00;;;;;;6101171;29;20478;-78
2023/04/27 20:02:09;;;;;;;11.75;4.57;;;16.20;76.00;;;;;;6100346;29;20055;-76
2023/04/27 20:05:11;;;;;;;9.15;3.78;;;16.10;76.70;;;;;;6102656;29;20072;-77
2023/04/27 20:08:13;;;;;;;14.93;7.37;;;16.00;76.30;;;;;;6103358;29;20071;-77
2023/04/27 20:11:16;;;;;;;21.52;8.05;;;16.00;78.20;;;;;;6102306;29;20056;-77
2023/04/27 20:14:18;;;;;;;15.23;7.50;;;15.90;77.80;;;;;;6101336;29;20055;-76
2023/04/27 20:17:24;;;;;;;14.52;7.10;;;15.90;78.70;;;;;;6101969;29;20060;-78
2023/04/27 20:20:26;;;;;;;9.65;4.32;;;15.90;79.40;;;;;;6100650;29;20078;-77
2023/04/27 20:23:28;;;;;;;9.02;4.50;;;15.90;78.90;;;;;;6101256;29;20791;-77
2023/04/27 20:26:30;;;;;;;9.77;4.68;;;15.80;79.20;;;;;;6101495;29;20056;-76
2023/04/27 20:29:32;;;;;;;8.25;3.60;;;15.70;80.60;;;;;;6100249;29;20075;-77
2023/04/27 20:32:38;;;;;;;7.28;3.13;;;15.70;81.10;;;;;;6100240;29;20068;-77
2023/04/27 20:35:40;;;;;;;7.38;3.25;;;15.60;81.60;;;;;;6100969;29;20063;-76
2023/04/27 20:38:41;;;;;;;4.22;2.40;;;15.40;80.80;;;;;;6101381;29;20052;-76
2023/04/27 20:41:43;;;;;;;5.22;2.60;;;15.00;81.30;;;;;;6099713;29;20816;-77
2023/04/27 20:44:45;;;;;;;5.07;2.50;;;14.80;83.20;;;;;;6101445;29;20044;-77
2023/04/27 20:47:49;;;;;;;6.63;3.47;;;14.90;83.30;;;;;;6099576;29;20055;-78
2023/04/27 20:50:50;;;;;;;7.30;3.38;;;14.90;84.30;;;;;;6099879;29;20501;-78
2023/04/27 20:53:52;;;;;;;6.97;3.28;;;14.90;84.60;;;;;;6101675;29;20060;-78
2023/04/27 20:56:54;;;;;;;4.88;2.75;;;14.90;85.10;;;;;;6101078;29;20056;-78
2023/04/27 20:59:56;;;;;;;6.03;2.80;;;14.90;85.00;;;;;;6099589;29;20424;-78
2023/04/27 21:02:59;;;;;;;5.00;2.80;;;14.70;85.20;;;;;;6099885;29;20044;-78
2023/04/27 21:06:01;;;;;;;7.28;3.28;;;14.80;85.90;;;;;;6101008;29;20542;-78
2023/04/27 21:09:04;;;;;;;9.00;3.60;;;14.70;86.50;;;;;;6100468;29;20052;-78
2023/04/27 21:12:07;;;;;;;7.95;3.28;;;14.70;86.90;;;;;;6100381;29;20059;-77
2023/04/27 21:15:09;;;;;;;6.38;3.15;;;14.70;87.00;;;;;;6101228;29;20131;-78
2023/04/27 21:18:12;;;;;;;7.07;3.15;;;14.60;87.60;;;;;;6101318;29;20052;-78
2023/04/27 21:21:14;;;;;;;7.18;3.00;;;14.50;87.90;;;;;;6102312;29;20060;-78
2023/04/27 21:24:17;;;;;;;5.05;2.70;;;14.50;88.60;;;;;;6103049;29;20048;-78
2023/04/27 21:27:20;;;;;;;5.97;2.78;;;14.50;88.50;;;;;;6103978;29;20052;-78
2023/04/27 21:30:21;;;;;;;5.53;2.33;;;14.30;89.30;;;;;;6102594;29;20048;-78
2023/04/27 21:33:25;;;;;;;4.50;2.40;;;14.30;90.00;;;;;;6103579;29;20060;-78
2023/04/27 21:36:27;;;;;;;5.60;2.45;;;14.30;90.30;;;;;;6103748;29;20068;-78
2023/04/27 21:39:28;;;;;;;5.45;3.10;;;14.20;90.50;;;;;;6102773;29;20048;-78
2023/04/27 21:42:30;;;;;;;7.30;2.90;;;14.20;90.90;;;;;;6103558;29;20207;-76
2023/04/27 21:45:32;;;;;;;6.13;2.70;;;14.20;91.20;;;;;;6103696;29;20053;-78
2023/04/27 21:48:36;;;;;;;5.32;2.67;;;14.30;91.30;;;;;;6102856;29;20417;-77
2023/04/27 21:51:37;;;;;;;5.18;2.80;;;14.20;91.30;;;;;;6102718;29;20108;-79
2023/04/27 21:54:39;;;;;;;6.05;3.08;;;14.20;91.50;;;;;;6106114;29;20052;-77
2023/04/27 21:57:41;;;;;;;5.00;2.72;;;14.10;91.60;;;;;;6107939;29;20058;-77
